KPUC/PUC METAR and TAF weather

Enter ICAO airport designator
Station Type Date Time Source
KPUC METAR 2020/12/06 00:53 UTC NOAA

KPUC 060053Z AUTO 01008KT 10SM CLR M01/M15 A3037 RMK AO2 SLP341 T10061150


Station Type Date Time Source
KPUC Decoded METAR 2020/12/06 00:53 UTC NOAA

PRICE CARBON COUNTY AIRPORT, UT, United States (KPUC) 39-37N 110-45W 2091M
Dec 05, 2020 - 07:53 PM EST / 2020.12.06 0053 UTC
Wind: from the N (010 degrees) at 9 MPH (8 KT):0
Visibility: 10 mile(s):0
Sky conditions: clear
Temperature: 30.9 F (-0.6 C)
Windchill: 23 F (-5 C):1
Dew Point: 5.0 F (-15.0 C)
Relative Humidity: 32%
Pressure (altimeter): 30.37 in. Hg (1028 hPa)
ob: KPUC 060053Z AUTO 01008KT 10SM CLR M01/M15 A3037 RMK AO2 SLP341 T10061150
cycle: 1

Station Type Date Time Source
KPUC TAF UTC NOAA

Error!

Example: see airport list